YPTN/KTR METAR and TAF weather

Enter ICAO airport designator
Station Type Date Time Source
YPTN METAR 2021/09/25 03:30 UTC NOAA

YPTN 250330Z AUTO 05003KT 9999 // SCT079 34/12 Q1011 RF00.0/000.0


Station Type Date Time Source
YPTN Decoded METAR 2021/09/25 03:30 UTC NOAA

Tindal / Katherine, Australia (YPTN) 14-26S 132-16E 109M
Sep 24, 2021 - 11:30 PM EDT / 2021.09.25 0330 UTC
Wind: from the NE (050 degrees) at 3 MPH (3 KT):0
Visibility: greater than 7 mile(s):0
Sky conditions: partly cloudy
Temperature: 93 F (34 C)
Dew Point: 53 F (12 C)
Relative Humidity: 26%
Pressure (altimeter): 29.85 in. Hg (1011 hPa)
ob: YPTN 250330Z AUTO 05003KT 9999 // SCT079 34/12 Q1011 RF00.0/000.0
cycle: 3

Station Type Date Time Source
YPTN TAF 2021/09/24 18:33 UTC NOAA

TAF YPTN 241700Z 2418/2518 35006KT CAVOK
FM250100 11008KT CAVOK
FM250800 14006KT CAVOK
FM251500 06006KT CAVOK

Example: see airport list